createdAt,value
2023-05-05T00:00:27.430Z,89.42
2023-05-05T00:02:56.435Z,89.68
2023-05-05T00:05:25.424Z,89.72
2023-05-05T00:07:54.658Z,88.90
2023-05-05T00:10:22.776Z,89.12
2023-05-05T00:12:51.670Z,89.10
2023-05-05T00:15:19.806Z,89.26
2023-05-05T00:17:52.925Z,90.41
2023-05-05T00:20:21.260Z,89.34
2023-05-05T00:22:49.158Z,89.08
2023-05-05T00:25:18.241Z,89.73
2023-05-05T00:27:46.182Z,90.25
2023-05-05T00:30:14.821Z,90.46
2023-05-05T00:32:43.398Z,90.73
2023-05-05T00:35:12.967Z,90.75
2023-05-05T00:37:40.924Z,91.50
2023-05-05T00:40:10.848Z,91.28
2023-05-05T00:42:42.941Z,90.80
2023-05-05T00:45:12.856Z,89.98
2023-05-05T00:47:42.659Z,90.09
2023-05-05T00:50:23.218Z,90.48
2023-05-05T00:52:52.117Z,90.45
2023-05-05T00:55:20.597Z,89.88
2023-05-05T00:57:50.151Z,91.58
2023-05-05T01:00:19.008Z,90.70
2023-05-05T01:02:47.087Z,91.36
2023-05-05T01:05:18.668Z,91.79
2023-05-05T01:07:56.968Z,91.70
2023-05-05T01:10:33.695Z,91.01
2023-05-05T01:13:15.146Z,90.46
2023-05-05T01:15:47.974Z,90.41
2023-05-05T01:18:25.506Z,90.77
2023-05-05T01:21:03.509Z,90.13
2023-05-05T01:24:02.470Z,90.69
2023-05-05T01:26:49.823Z,90.49
2023-05-05T01:29:39.433Z,90.43
2023-05-05T01:32:14.141Z,90.79
2023-05-05T01:34:47.222Z,90.79
2023-05-05T01:37:21.793Z,90.43
2023-05-05T01:39:54.127Z,90.41
2023-05-05T01:42:26.708Z,89.47
2023-05-05T01:44:55.723Z,89.81
2023-05-05T01:47:25.867Z,89.70
2023-05-05T01:49:56.765Z,88.53
2023-05-05T01:52:25.405Z,88.40
2023-05-05T01:54:55.387Z,88.15
2023-05-05T01:57:26.515Z,88.44
2023-05-05T01:59:57.436Z,88.86
2023-05-05T02:02:29.908Z,88.56
2023-05-05T02:05:00.659Z,88.22
2023-05-05T02:07:48.366Z,87.61
2023-05-05T02:10:19.981Z,88.69
2023-05-05T02:12:49.663Z,89.24
2023-05-05T02:15:18.785Z,88.97
2023-05-05T02:17:49.621Z,89.18
2023-05-05T02:20:20.817Z,90.01
2023-05-05T02:22:49.918Z,90.25
2023-05-05T02:25:18.508Z,89.67
2023-05-05T02:27:49.952Z,90.57
2023-05-05T02:30:21.119Z,90.40
2023-05-05T02:32:55.673Z,90.78
2023-05-05T02:35:33.223Z,90.74
2023-05-05T02:38:06.086Z,90.14
2023-05-05T02:40:41.224Z,90.03
2023-05-05T02:43:13.481Z,90.25
2023-05-05T02:45:41.726Z,92.39
2023-05-05T02:48:13.464Z,92.14
2023-05-05T02:50:42.288Z,93.03
2023-05-05T02:53:17.064Z,93.45
2023-05-05T02:55:52.182Z,93.18
2023-05-05T02:58:30.556Z,92.86
2023-05-05T03:01:10.361Z,92.01
2023-05-05T03:03:45.801Z,91.56
2023-05-05T03:06:20.638Z,91.44
2023-05-05T03:08:56.349Z,90.88
2023-05-05T03:11:33.691Z,90.51
2023-05-05T03:14:08.712Z,90.86
2023-05-05T03:16:39.579Z,91.02
2023-05-05T03:19:13.103Z,92.96
2023-05-05T03:21:43.825Z,92.17
2023-05-05T03:24:16.116Z,90.94
2023-05-05T03:26:50.706Z,90.16
2023-05-05T03:29:22.333Z,90.82
2023-05-05T03:31:51.246Z,91.07
2023-05-05T03:34:20.926Z,90.29
2023-05-05T03:36:50.039Z,90.05
2023-05-05T03:39:19.231Z,89.54
2023-05-05T03:41:48.259Z,89.96
2023-05-05T03:44:17.121Z,89.77
2023-05-05T03:46:46.009Z,90.72
2023-05-05T03:49:15.963Z,90.10
2023-05-05T03:51:48.419Z,89.84
2023-05-05T03:54:16.850Z,90.01
2023-05-05T03:56:45.471Z,90.70
2023-05-05T03:59:13.894Z,90.72
2023-05-05T04:01:41.959Z,91.05
2023-05-05T04:04:10.823Z,90.85
2023-05-05T04:06:39.363Z,90.76
2023-05-05T04:09:08.943Z,90.34
2023-05-05T04:11:38.849Z,90.88
2023-05-05T04:14:08.447Z,90.84
2023-05-05T04:16:36.686Z,90.69
2023-05-05T04:19:05.041Z,90.73
2023-05-05T04:21:34.709Z,89.49
2023-05-05T04:24:02.912Z,89.34
2023-05-05T04:26:33.278Z,90.43
2023-05-05T04:29:01.938Z,90.05
2023-05-05T04:31:30.727Z,90.43
2023-05-05T04:33:58.849Z,90.83
2023-05-05T04:36:27.915Z,91.68
2023-05-05T04:38:55.979Z,91.16
2023-05-05T04:41:25.034Z,90.91
2023-05-05T04:43:55.550Z,90.76
2023-05-05T04:46:23.614Z,90.29
2023-05-05T04:48:51.606Z,90.37
2023-05-05T04:51:20.610Z,89.56
2023-05-05T04:53:48.546Z,89.21
2023-05-05T04:56:16.941Z,89.08
2023-05-05T04:58:45.381Z,88.35
2023-05-05T05:01:14.725Z,87.61
2023-05-05T05:03:43.690Z,87.51
2023-05-05T05:06:12.245Z,87.10
2023-05-05T05:08:40.326Z,86.01
2023-05-05T05:11:08.263Z,85.71
2023-05-05T05:13:37.163Z,84.20
2023-05-05T05:16:05.373Z,83.48
2023-05-05T05:18:36.743Z,83.60
2023-05-05T05:21:05.612Z,82.43
2023-05-05T05:23:34.385Z,82.14
2023-05-05T05:26:05.636Z,82.94
2023-05-05T05:28:34.324Z,84.30
2023-05-05T05:31:03.020Z,84.21
2023-05-05T05:33:32.617Z,84.32
2023-05-05T05:36:01.903Z,84.57
2023-05-05T05:38:30.389Z,84.95
2023-05-05T05:41:06.808Z,86.43
2023-05-05T05:43:36.328Z,86.63
2023-05-05T05:46:08.295Z,88.22
2023-05-05T05:48:40.241Z,86.59
2023-05-05T05:51:09.593Z,88.80
2023-05-05T05:53:37.931Z,89.61
2023-05-05T05:56:10.320Z,90.30
2023-05-05T05:58:39.094Z,89.58
2023-05-05T06:01:07.297Z,89.90
2023-05-05T06:03:36.873Z,89.72
2023-05-05T06:06:05.111Z,89.35
2023-05-05T06:08:35.271Z,88.55
2023-05-05T06:11:03.678Z,88.27
2023-05-05T06:13:32.144Z,85.90
2023-05-05T06:16:00.837Z,84.75
2023-05-05T06:18:29.632Z,84.18
2023-05-05T06:20:57.604Z,86.32
2023-05-05T06:23:28.582Z,83.92
2023-05-05T06:26:03.849Z,84.19
2023-05-05T06:28:31.838Z,85.86
2023-05-05T06:30:59.699Z,84.23
2023-05-05T06:33:28.397Z,85.49
2023-05-05T06:35:56.355Z,84.13
2023-05-05T06:38:24.854Z,84.75
2023-05-05T06:40:53.149Z,84.62
2023-05-05T06:43:22.932Z,86.96
2023-05-05T06:45:56.618Z,87.02
2023-05-05T06:48:25.027Z,86.92
2023-05-05T06:50:52.994Z,87.29
2023-05-05T06:53:21.877Z,88.51
2023-05-05T06:55:49.836Z,87.06
2023-05-05T06:58:18.343Z,86.90
2023-05-05T07:00:48.236Z,86.38
2023-05-05T07:03:16.102Z,86.51
2023-05-05T07:05:44.539Z,84.95
2023-05-05T07:08:12.512Z,84.30
2023-05-05T07:10:40.447Z,83.86
2023-05-05T07:13:09.658Z,81.92
2023-05-05T07:15:37.705Z,81.47
2023-05-05T07:18:07.966Z,82.97
2023-05-05T07:20:35.720Z,81.30
2023-05-05T07:23:03.546Z,81.08
2023-05-05T07:25:32.347Z,79.58
2023-05-05T07:28:00.331Z,78.62
2023-05-05T07:30:28.619Z,79.31
2023-05-05T07:32:57.213Z,79.26
2023-05-05T07:35:26.557Z,77.46
2023-05-05T07:37:54.842Z,78.03
2023-05-05T07:40:23.879Z,77.39
2023-05-05T07:42:51.845Z,77.45
2023-05-05T07:45:19.861Z,77.54
2023-05-05T07:47:48.889Z,77.44
2023-05-05T07:50:17.140Z,77.63
2023-05-05T07:52:51.731Z,79.08
2023-05-05T07:55:25.255Z,78.54
2023-05-05T07:57:53.176Z,76.80
2023-05-05T08:00:21.937Z,78.10
2023-05-05T08:02:50.584Z,77.92
2023-05-05T08:05:18.699Z,76.18
2023-05-05T08:07:48.166Z,75.69
2023-05-05T08:10:17.316Z,76.90
2023-05-05T08:12:45.438Z,75.41
2023-05-05T08:15:13.998Z,75.56
2023-05-05T08:17:47.336Z,77.44
2023-05-05T08:20:15.553Z,75.60
2023-05-05T08:22:43.672Z,75.90
2023-05-05T08:25:14.472Z,75.31
2023-05-05T08:27:43.607Z,74.60
2023-05-05T08:30:13.049Z,74.77
2023-05-05T08:32:41.970Z,73.34
2023-05-05T08:35:10.772Z,73.93
2023-05-05T08:37:39.512Z,74.62
2023-05-05T08:40:09.214Z,74.22
2023-05-05T08:42:39.405Z,74.64
2023-05-05T08:45:11.097Z,73.91
2023-05-05T08:47:39.985Z,73.21
2023-05-05T08:50:12.062Z,74.02
2023-05-05T08:52:44.104Z,74.52
2023-05-05T08:55:25.936Z,73.64
2023-05-05T08:57:57.225Z,73.87
2023-05-05T09:00:27.492Z,73.05
2023-05-05T09:02:57.125Z,72.67
2023-05-05T09:05:26.365Z,71.66
2023-05-05T09:07:55.068Z,70.73
2023-05-05T09:10:23.198Z,70.79
2023-05-05T09:12:51.608Z,71.31
2023-05-05T09:15:21.994Z,70.67
2023-05-05T09:17:49.984Z,69.89
2023-05-05T09:20:18.360Z,70.94
2023-05-05T09:22:48.337Z,71.77
2023-05-05T09:25:17.926Z,72.21
2023-05-05T09:27:50.341Z,72.27
2023-05-05T09:30:24.172Z,72.78
2023-05-05T09:32:55.786Z,72.14
2023-05-05T09:35:24.536Z,70.93
2023-05-05T09:37:52.430Z,71.53
2023-05-05T09:40:22.747Z,71.67
2023-05-05T09:43:02.031Z,70.88
2023-05-05T09:45:31.023Z,71.63
2023-05-05T09:48:00.860Z,70.98
2023-05-05T09:50:33.078Z,70.80
2023-05-05T09:53:03.125Z,71.10
2023-05-05T09:55:32.095Z,70.73
2023-05-05T09:58:19.702Z,71.24
2023-05-05T10:00:47.996Z,71.40
2023-05-05T10:03:17.532Z,71.21
2023-05-05T10:05:52.284Z,70.41
2023-05-05T10:08:23.483Z,69.56
2023-05-05T10:10:53.693Z,68.25
2023-05-05T10:13:23.020Z,66.79
2023-05-05T10:15:52.492Z,66.05
2023-05-05T10:18:26.470Z,66.33
2023-05-05T10:20:58.971Z,65.49
2023-05-05T10:23:34.658Z,66.38
2023-05-05T10:26:04.584Z,63.77
2023-05-05T10:28:35.547Z,63.33
2023-05-05T10:31:12.866Z,64.52
2023-05-05T10:33:55.933Z,64.25
2023-05-05T10:36:25.575Z,61.90
2023-05-05T10:38:57.550Z,61.17
2023-05-05T10:41:26.236Z,63.05
2023-05-05T10:43:56.672Z,63.67
2023-05-05T10:46:26.594Z,64.95
2023-05-05T10:49:03.575Z,64.19
2023-05-05T10:51:45.505Z,65.22
2023-05-05T10:54:20.787Z,63.90
2023-05-05T10:56:51.658Z,64.41
2023-05-05T10:59:41.891Z,63.80
2023-05-05T11:02:24.228Z,63.62
2023-05-05T11:05:10.850Z,62.65
2023-05-05T11:07:40.180Z,62.89
2023-05-05T11:10:09.583Z,62.70
2023-05-05T11:13:19.304Z,63.24
2023-05-05T11:15:47.630Z,63.05
2023-05-05T11:18:37.139Z,63.68
2023-05-05T11:21:16.643Z,63.56
2023-05-05T11:23:47.622Z,62.94
2023-05-05T11:26:16.335Z,61.69
2023-05-05T11:29:00.357Z,64.06
2023-05-05T11:31:29.189Z,63.74
2023-05-05T11:34:30.564Z,63.29
2023-05-05T11:37:03.268Z,62.43
2023-05-05T11:39:45.044Z,63.41
2023-05-05T11:42:28.084Z,63.33
2023-05-05T11:44:57.728Z,63.23
2023-05-05T11:47:30.597Z,63.66
2023-05-05T11:49:59.708Z,63.94
2023-05-05T11:52:29.012Z,62.40
2023-05-05T11:55:04.126Z,60.89
2023-05-05T11:57:32.158Z,61.91
2023-05-05T12:00:01.752Z,63.37
2023-05-05T12:02:33.234Z,62.85
2023-05-05T12:05:02.486Z,59.76
2023-05-05T12:07:33.603Z,60.14
2023-05-05T12:10:02.543Z,59.00
2023-05-05T12:12:38.122Z,57.90
2023-05-05T12:15:08.332Z,57.65
2023-05-05T12:17:40.962Z,58.28
2023-05-05T12:20:11.869Z,58.14
2023-05-05T12:22:41.670Z,60.22
2023-05-05T12:25:11.182Z,59.16
2023-05-05T12:27:39.268Z,58.54
2023-05-05T12:30:16.718Z,59.20
2023-05-05T12:32:46.014Z,58.89
2023-05-05T12:35:16.366Z,59.03
2023-05-05T12:37:45.909Z,61.59
2023-05-05T12:40:45.246Z,62.36
2023-05-05T12:43:25.496Z,62.68
2023-05-05T12:46:09.182Z,62.67
2023-05-05T12:48:39.003Z,62.74
2023-05-05T12:51:20.187Z,61.92
2023-05-05T12:53:50.907Z,62.50
2023-05-05T12:56:33.590Z,60.39
2023-05-05T12:59:02.047Z,60.31
2023-05-05T13:01:30.565Z,60.03
2023-05-05T13:04:13.183Z,60.02
2023-05-05T13:06:42.933Z,60.78
2023-05-05T13:09:24.493Z,60.34
2023-05-05T13:11:52.790Z,59.48
2023-05-05T13:14:20.736Z,59.58
2023-05-05T13:16:52.661Z,59.38
2023-05-05T13:19:20.681Z,60.51
2023-05-05T13:21:48.753Z,60.03
2023-05-05T13:24:31.179Z,59.22
2023-05-05T13:27:04.366Z,60.35
2023-05-05T13:29:33.813Z,61.01
2023-05-05T13:32:01.912Z,60.37
2023-05-05T13:34:29.810Z,60.37
2023-05-05T13:36:58.699Z,61.06
2023-05-05T13:39:28.457Z,61.64
2023-05-05T13:41:56.424Z,62.04
2023-05-05T13:44:24.893Z,62.62
2023-05-05T13:46:53.499Z,63.92
2023-05-05T13:49:22.021Z,63.69
2023-05-05T13:51:50.414Z,63.37
2023-05-05T13:54:18.373Z,62.54
2023-05-05T13:56:47.729Z,63.74
2023-05-05T13:59:16.630Z,63.45
2023-05-05T14:01:44.574Z,63.31
2023-05-05T14:04:13.047Z,62.59
2023-05-05T14:06:41.814Z,62.60
2023-05-05T14:09:09.856Z,63.26
2023-05-05T14:11:37.752Z,64.02
2023-05-05T14:14:08.312Z,65.15
2023-05-05T14:16:36.477Z,64.79
2023-05-05T14:19:04.941Z,65.50
2023-05-05T14:21:33.605Z,66.05
2023-05-05T14:24:01.513Z,67.18
2023-05-05T14:26:30.426Z,67.32
2023-05-05T14:28:58.340Z,69.40
2023-05-05T14:31:29.075Z,71.60
2023-05-05T14:33:58.076Z,74.29
2023-05-05T14:36:26.856Z,78.73
2023-05-05T14:38:55.939Z,80.98
2023-05-05T14:41:23.921Z,82.78
2023-05-05T14:43:52.294Z,86.77
2023-05-05T14:46:21.014Z,90.93
2023-05-05T14:48:51.165Z,99.99
2023-05-05T14:51:19.870Z,99.99
2023-05-05T14:53:48.224Z,99.99
2023-05-05T14:56:16.189Z,99.99
2023-05-05T14:58:44.514Z,99.99
2023-05-05T15:01:13.366Z,99.99
2023-05-05T15:03:43.185Z,99.99
2023-05-05T15:06:13.044Z,99.99
2023-05-05T15:08:40.876Z,99.99
2023-05-05T15:11:08.852Z,99.99
2023-05-05T15:13:39.065Z,99.99
2023-05-05T15:16:07.863Z,99.99
2023-05-05T15:18:35.885Z,99.99
2023-05-05T15:21:05.174Z,99.99
2023-05-05T15:23:34.762Z,99.99
2023-05-05T15:26:03.306Z,99.56
2023-05-05T15:28:31.714Z,99.12
2023-05-05T15:31:01.830Z,98.24
2023-05-05T15:33:31.939Z,98.48
2023-05-05T15:36:00.438Z,98.88
2023-05-05T15:38:29.318Z,96.90
2023-05-05T15:40:59.079Z,96.51
2023-05-05T15:43:28.236Z,98.20
2023-05-05T15:45:56.193Z,97.82
2023-05-05T15:48:25.214Z,94.57
2023-05-05T15:50:53.149Z,94.00
2023-05-05T15:53:22.977Z,94.87
2023-05-05T15:55:51.020Z,95.53
2023-05-05T15:58:20.849Z,96.67
2023-05-05T16:00:49.723Z,96.59
2023-05-05T16:03:17.838Z,97.62
2023-05-05T16:05:47.158Z,95.89
2023-05-05T16:08:17.224Z,96.24
2023-05-05T16:10:45.224Z,96.85
2023-05-05T16:13:14.560Z,98.36
2023-05-05T16:15:44.689Z,97.68
2023-05-05T16:18:13.150Z,98.24
2023-05-05T16:20:41.716Z,98.55
2023-05-05T16:23:09.737Z,98.68
2023-05-05T16:25:37.757Z,98.51
2023-05-05T16:28:06.719Z,99.16
2023-05-05T16:30:35.368Z,99.23
2023-05-05T16:33:07.168Z,99.56
2023-05-05T16:35:36.234Z,99.99
2023-05-05T16:38:04.202Z,99.99
2023-05-05T16:40:33.079Z,99.99
2023-05-05T16:43:01.028Z,99.68
2023-05-05T16:45:29.897Z,99.51
2023-05-05T16:47:57.896Z,99.99
2023-05-05T16:50:27.730Z,99.78
2023-05-05T16:52:56.590Z,99.27
2023-05-05T16:55:25.832Z,99.99
2023-05-05T16:57:54.734Z,99.99
2023-05-05T17:00:22.641Z,99.99
2023-05-05T17:02:51.168Z,99.99
2023-05-05T17:05:19.653Z,99.99
2023-05-05T17:07:49.208Z,99.99
2023-05-05T17:10:17.505Z,99.99
2023-05-05T17:12:45.803Z,99.99
2023-05-05T17:15:13.778Z,99.99
2023-05-05T17:17:43.049Z,99.99
2023-05-05T17:20:12.664Z,99.99
2023-05-05T17:22:40.649Z,99.99
2023-05-05T17:25:11.670Z,99.99
2023-05-05T17:27:40.701Z,99.99
2023-05-05T17:30:10.517Z,99.99
2023-05-05T17:32:38.583Z,99.99
2023-05-05T17:35:07.742Z,99.99
2023-05-05T17:37:37.108Z,99.99
2023-05-05T17:40:05.961Z,99.99
2023-05-05T17:42:36.660Z,99.99
2023-05-05T17:45:05.239Z,99.99
2023-05-05T17:47:33.197Z,99.99
2023-05-05T17:50:02.330Z,99.99
2023-05-05T17:52:30.345Z,99.99
2023-05-05T17:54:58.990Z,99.99
2023-05-05T17:57:27.379Z,99.99
2023-05-05T17:59:56.925Z,99.99
2023-05-05T18:02:25.257Z,99.99
2023-05-05T18:04:54.233Z,99.99
2023-05-05T18:07:22.160Z,99.99
2023-05-05T18:09:50.802Z,99.99
2023-05-05T18:12:19.188Z,99.99
2023-05-05T18:14:47.193Z,99.99
2023-05-05T18:17:19.598Z,99.99
2023-05-05T18:19:49.132Z,99.99
2023-05-05T18:22:17.498Z,99.99
2023-05-05T18:24:47.467Z,99.99
2023-05-05T18:27:15.558Z,99.99
2023-05-05T18:29:44.084Z,99.99
2023-05-05T18:32:12.584Z,99.99
2023-05-05T18:34:41.926Z,99.99
2023-05-05T18:37:11.072Z,99.99
2023-05-05T18:39:39.201Z,99.99
2023-05-05T18:42:07.948Z,99.99
2023-05-05T18:44:36.344Z,99.99
2023-05-05T18:47:04.370Z,99.99
2023-05-05T18:49:32.223Z,99.99
2023-05-05T18:52:02.463Z,99.99
2023-05-05T18:54:30.875Z,99.99
2023-05-05T18:56:59.270Z,99.99
2023-05-05T18:59:27.363Z,99.99
2023-05-05T19:01:56.212Z,99.99
2023-05-05T19:04:30.682Z,99.99
2023-05-05T19:07:01.734Z,99.99
2023-05-05T19:09:30.129Z,99.99
2023-05-05T19:11:58.059Z,99.99
2023-05-05T19:14:25.930Z,99.99
2023-05-05T19:16:56.311Z,99.99
2023-05-05T19:19:24.811Z,99.99
2023-05-05T19:21:53.231Z,99.99
2023-05-05T19:24:22.456Z,99.99
2023-05-05T19:26:50.782Z,99.99
2023-05-05T19:29:18.826Z,99.99
2023-05-05T19:31:46.867Z,99.99
2023-05-05T19:34:15.323Z,99.99
2023-05-05T19:36:43.665Z,99.99
2023-05-05T19:39:13.031Z,99.99
2023-05-05T19:41:43.906Z,99.99
2023-05-05T19:44:11.847Z,99.99
2023-05-05T19:46:40.397Z,99.99
2023-05-05T19:49:08.816Z,99.99
2023-05-05T19:51:36.752Z,99.99
2023-05-05T19:54:05.345Z,99.99
2023-05-05T19:56:33.321Z,99.99
2023-05-05T19:59:05.742Z,99.99
2023-05-05T20:01:34.077Z,99.99
2023-05-05T20:04:03.385Z,99.99
2023-05-05T20:06:32.445Z,99.99
2023-05-05T20:09:00.794Z,99.99
2023-05-05T20:11:29.360Z,99.99
2023-05-05T20:13:58.235Z,99.99
2023-05-05T20:16:27.570Z,99.99
2023-05-05T20:18:56.051Z,99.99
2023-05-05T20:21:24.491Z,99.99
2023-05-05T20:23:54.519Z,99.99
2023-05-05T20:26:26.320Z,99.99
2023-05-05T20:28:54.310Z,99.99
2023-05-05T20:31:22.285Z,99.99
2023-05-05T20:33:52.527Z,99.99
2023-05-05T20:36:20.528Z,99.99
2023-05-05T20:38:48.974Z,99.99
2023-05-05T20:41:17.313Z,99.99
2023-05-05T20:43:45.313Z,99.99
2023-05-05T20:46:14.145Z,99.99
2023-05-05T20:48:43.252Z,99.99
2023-05-05T20:51:12.552Z,99.99
2023-05-05T20:53:41.648Z,99.99
2023-05-05T20:56:09.543Z,99.99
2023-05-05T20:58:39.010Z,99.99
2023-05-05T21:01:07.409Z,99.99
2023-05-05T21:03:35.368Z,99.99
2023-05-05T21:06:03.746Z,99.99
2023-05-05T21:08:33.486Z,99.99
2023-05-05T21:11:01.549Z,99.99
2023-05-05T21:13:29.438Z,99.99
2023-05-05T21:15:58.252Z,99.99
2023-05-05T21:18:27.613Z,99.99
2023-05-05T21:20:56.659Z,99.99
2023-05-05T21:23:24.585Z,99.99
2023-05-05T21:25:54.311Z,99.99
2023-05-05T21:28:22.629Z,99.99
2023-05-05T21:31:10.134Z,99.99
2023-05-05T21:33:40.303Z,99.99
2023-05-05T21:36:08.387Z,99.99
2023-05-05T21:38:36.751Z,99.99
2023-05-05T21:41:06.792Z,99.99
2023-05-05T21:43:34.755Z,99.99
2023-05-05T21:46:04.098Z,99.99
2023-05-05T21:48:32.604Z,99.99
2023-05-05T21:51:00.998Z,99.99
2023-05-05T21:53:29.947Z,99.99
2023-05-05T21:55:57.876Z,99.99
2023-05-05T21:58:28.357Z,99.99
2023-05-05T22:00:56.470Z,99.99
2023-05-05T22:03:26.103Z,99.99
2023-05-05T22:05:55.164Z,99.99
2023-05-05T22:08:23.183Z,99.99
2023-05-05T22:10:52.673Z,99.99
2023-05-05T22:13:20.769Z,99.99
2023-05-05T22:15:50.263Z,99.99
2023-05-05T22:18:18.756Z,99.99
2023-05-05T22:20:46.914Z,99.99
2023-05-05T22:23:16.673Z,99.99
2023-05-05T22:25:45.426Z,99.99
2023-05-05T22:28:13.387Z,99.99
2023-05-05T22:30:42.437Z,99.99
2023-05-05T22:33:11.814Z,99.99
2023-05-05T22:35:41.014Z,99.99
2023-05-05T22:38:09.437Z,99.99
2023-05-05T22:40:37.424Z,99.99
2023-05-05T22:43:05.570Z,99.99
2023-05-05T22:45:34.822Z,99.99
2023-05-05T22:48:03.338Z,99.99
2023-05-05T22:50:32.788Z,99.99
2023-05-05T22:53:01.153Z,99.99
2023-05-05T22:55:30.046Z,99.99
2023-05-05T22:57:57.937Z,99.99
2023-05-05T23:00:27.174Z,99.99
2023-05-05T23:02:55.289Z,99.99
2023-05-05T23:05:23.762Z,99.99
2023-05-05T23:07:53.679Z,99.99
2023-05-05T23:10:21.465Z,99.99
2023-05-05T23:12:49.470Z,99.99
2023-05-05T23:15:18.637Z,99.99
2023-05-05T23:17:46.631Z,99.99
2023-05-05T23:20:15.261Z,99.99
2023-05-05T23:22:43.861Z,99.99
2023-05-05T23:25:13.256Z,99.99
2023-05-05T23:27:41.979Z,99.99
2023-05-05T23:30:11.739Z,99.99
2023-05-05T23:32:39.768Z,99.99
2023-05-05T23:35:09.792Z,99.99
2023-05-05T23:37:37.928Z,99.99
2023-05-05T23:40:07.926Z,99.99
2023-05-05T23:42:38.431Z,99.99
2023-05-05T23:45:07.183Z,99.99
2023-05-05T23:47:35.710Z,99.99
2023-05-05T23:50:04.130Z,99.99
2023-05-05T23:52:32.542Z,99.99
2023-05-05T23:55:01.517Z,99.99
2023-05-05T23:57:29.896Z,99.99
